Time;durP1;ratioP1;P1;durP2;ratioP2;P2;SDS_P1;SDS_P2;PMS_P1;PMS_P2;Temp;Humidity;BMP_temperature;BMP_pressure;BME280_temperature;BME280_humidity;BME280_pressure;Samples;Min_cycle;Max_cycle;Signal;HPM_P1;HPM_P2
2023/03/24 00:01:11;;;;;;;2.80;2.13;;;23.70;56.40;;;;;;5072152;28;20922;-65
2023/03/24 00:03:39;;;;;;;1.40;1.30;;;23.70;56.40;;;;;;5071479;28;20499;-68
2023/03/24 00:06:12;;;;;;;2.77;2.57;;;23.70;56.30;;;;;;5050478;28;20448;-67
2023/03/24 00:08:42;;;;;;;2.80;2.00;;;23.70;56.30;;;;;;5051361;28;20846;-66
2023/03/24 00:11:13;;;;;;;2.50;2.30;;;23.70;56.30;;;;;;5061843;28;20449;-66
2023/03/24 00:13:41;;;;;;;2.37;2.10;;;23.70;56.30;;;;;;5040232;28;20479;-68
2023/03/24 00:16:12;;;;;;;2.50;2.30;;;23.70;56.30;;;;;;5072026;28;20451;-66
2023/03/24 00:18:41;;;;;;;2.20;1.80;;;23.70;56.30;;;;;;5071296;28;20452;-66
2023/03/24 00:21:10;;;;;;;2.30;2.07;;;23.70;56.30;;;;;;5069684;28;20544;-66
2023/03/24 00:23:41;;;;;;;2.30;2.10;;;23.70;56.30;;;;;;5070642;28;20799;-66
2023/03/24 00:26:13;;;;;;;2.30;2.20;;;23.70;56.30;;;;;;5056094;28;20554;-65
2023/03/24 00:28:44;;;;;;;1.77;1.67;;;23.70;56.30;;;;;;5070937;28;20504;-69
2023/03/24 00:31:14;;;;;;;2.90;2.60;;;23.70;56.30;;;;;;5071346;28;20463;-66
2023/03/24 00:33:47;;;;;;;2.17;1.90;;;23.70;56.30;;;;;;5070481;28;20523;-71
2023/03/24 00:36:15;;;;;;;2.83;2.03;;;23.70;56.30;;;;;;5052940;28;20483;-66
2023/03/24 00:38:46;;;;;;;2.30;2.10;;;23.70;56.30;;;;;;5049490;28;20462;-72
2023/03/24 00:41:18;;;;;;;1.93;1.80;;;23.70;56.30;;;;;;5049472;28;20463;-67
2023/03/24 00:43:48;;;;;;;2.30;2.10;;;23.70;56.30;;;;;;5037822;28;20472;-67
2023/03/24 00:46:27;;;;;;;2.30;2.10;;;23.70;56.30;;;;;;5070682;28;20466;-66
2023/03/24 00:49:01;;;;;;;2.17;1.97;;;23.70;56.30;;;;;;5070141;28;20803;-66
2023/03/24 00:51:32;;;;;;;1.93;1.77;;;23.60;56.30;;;;;;5053612;28;20454;-69
2023/03/24 00:54:01;;;;;;;2.10;2.00;;;23.60;56.30;;;;;;5069746;28;20486;-68
2023/03/24 00:56:34;;;;;;;2.80;2.00;;;23.60;56.30;;;;;;5057696;28;20457;-69
2023/03/24 00:59:03;;;;;;;3.27;2.20;;;23.60;56.40;;;;;;5045317;28;20469;-69
2023/03/24 01:01:35;;;;;;;2.20;2.00;;;23.60;56.30;;;;;;5058181;28;20528;-68
2023/03/24 01:04:05;;;;;;;2.87;2.07;;;23.60;56.30;;;;;;5051833;28;20470;-67
2023/03/24 01:06:36;;;;;;;2.10;1.90;;;23.60;56.30;;;;;;5069748;28;20534;-67
2023/03/24 01:09:06;;;;;;;3.30;2.00;;;23.60;56.30;;;;;;5052023;28;20505;-67
2023/03/24 01:11:38;;;;;;;2.50;2.30;;;23.60;56.30;;;;;;5060972;28;20455;-73
2023/03/24 01:14:08;;;;;;;2.30;2.10;;;23.60;56.30;;;;;;5035953;28;20479;-67
2023/03/24 01:16:37;;;;;;;1.80;1.70;;;23.60;56.30;;;;;;5052531;28;20802;-67
2023/03/24 01:19:07;;;;;;;2.57;2.17;;;23.60;56.30;;;;;;5068884;28;20497;-69
2023/03/24 01:21:37;;;;;;;2.47;2.27;;;23.60;56.30;;;;;;5063705;28;20436;-70
2023/03/24 01:24:07;;;;;;;1.83;1.73;;;23.60;56.40;;;;;;5067635;28;20454;-66
2023/03/24 01:26:37;;;;;;;1.90;1.80;;;23.60;56.40;;;;;;5052609;28;20481;-67
2023/03/24 01:29:06;;;;;;;2.13;2.03;;;23.60;56.30;;;;;;5064497;28;21374;-67
2023/03/24 01:31:34;;;;;;;2.13;1.97;;;23.60;56.40;;;;;;5069139;28;20443;-71
2023/03/24 01:34:03;;;;;;;2.00;1.90;;;23.60;56.40;;;;;;5069238;28;20548;-68
2023/03/24 01:36:31;;;;;;;2.37;2.17;;;23.60;56.40;;;;;;5068266;28;20547;-66
2023/03/24 01:39:00;;;;;;;2.10;2.00;;;23.60;56.40;;;;;;5090371;28;20473;-69
2023/03/24 01:41:33;;;;;;;2.60;1.90;;;23.50;56.40;;;;;;5064214;28;20523;-66
2023/03/24 01:44:26;;;;;;;1.97;1.80;;;23.60;56.40;;;;;;5062550;28;20452;-66
2023/03/24 01:46:54;;;;;;;2.07;1.80;;;23.50;56.40;;;;;;5052850;28;20467;-68
2023/03/24 01:49:26;;;;;;;2.00;1.90;;;23.60;56.40;;;;;;5049442;28;20441;-69
2023/03/24 01:51:58;;;;;;;2.70;2.20;;;23.60;56.40;;;;;;5050263;28;20445;-67
2023/03/24 01:54:29;;;;;;;2.20;2.00;;;23.60;56.40;;;;;;5050987;28;20491;-66
2023/03/24 01:57:06;;;;;;;2.10;2.00;;;23.60;56.30;;;;;;5066831;28;20553;-68
2023/03/24 01:59:43;;;;;;;2.20;2.00;;;23.60;56.30;;;;;;5048510;28;20458;-66
2023/03/24 02:02:20;;;;;;;1.80;1.70;;;23.60;56.30;;;;;;5051904;28;20482;-68
2023/03/24 02:04:57;;;;;;;2.50;2.30;;;23.60;56.30;;;;;;5049590;28;20906;-67
2023/03/24 02:07:34;;;;;;;2.30;2.20;;;23.60;56.30;;;;;;5061110;28;20883;-67
2023/03/24 02:10:05;;;;;;;2.03;1.90;;;23.60;56.30;;;;;;5039739;28;21030;-67
2023/03/24 02:12:34;;;;;;;2.63;2.23;;;23.60;56.30;;;;;;5070051;28;20450;-66
2023/03/24 02:15:07;;;;;;;1.93;1.83;;;23.60;56.30;;;;;;5051169;28;20532;-66
2023/03/24 02:17:56;;;;;;;2.23;2.07;;;23.60;56.30;;;;;;5042633;28;21310;-69
2023/03/24 02:20:40;;;;;;;2.00;1.90;;;23.50;56.30;;;;;;5047178;28;20570;-69
2023/03/24 02:23:41;;;;;;;1.70;1.60;;;23.50;56.30;;;;;;5049396;28;20943;-70
2023/03/24 02:26:45;;;;;;;2.30;2.10;;;23.50;56.30;;;;;;5053179;28;20508;-67
2023/03/24 02:29:51;;;;;;;2.00;1.90;;;23.50;56.30;;;;;;5051940;28;20439;-67
2023/03/24 02:32:49;;;;;;;1.70;1.60;;;23.50;56.30;;;;;;5052270;28;20494;-68
2023/03/24 02:36:11;;;;;;;1.80;1.70;;;23.50;56.40;;;;;;5022428;28;20504;-67
2023/03/24 02:39:12;;;;;;;1.83;1.73;;;23.50;56.40;;;;;;5051919;28;20495;-66
2023/03/24 02:41:47;;;;;;;2.43;2.23;;;23.50;56.40;;;;;;5037049;28;20454;-66
2023/03/24 02:44:23;;;;;;;2.53;1.63;;;23.50;56.40;;;;;;5052231;28;20536;-67
2023/03/24 02:46:56;;;;;;;2.30;2.10;;;23.50;56.40;;;;;;5043088;28;20809;-67
2023/03/24 02:49:30;;;;;;;1.90;1.80;;;23.50;56.40;;;;;;5060484;28;20455;-71
2023/03/24 02:52:03;;;;;;;2.50;2.30;;;23.50;56.40;;;;;;5043916;28;20474;-66
2023/03/24 02:54:36;;;;;;;3.33;2.10;;;23.50;56.40;;;;;;5036999;28;20469;-66
2023/03/24 02:57:13;;;;;;;2.27;2.07;;;23.50;56.40;;;;;;5048772;28;20460;-71
2023/03/24 03:00:06;;;;;;;2.30;2.10;;;23.50;56.40;;;;;;5034329;28;20454;-66
2023/03/24 03:03:17;;;;;;;2.20;2.00;;;23.50;56.40;;;;;;5049008;28;20492;-66
2023/03/24 03:05:52;;;;;;;2.40;2.20;;;23.50;56.40;;;;;;5030648;28;20542;-66
2023/03/24 03:08:23;;;;;;;2.37;2.17;;;23.50;56.40;;;;;;5047742;28;21000;-66
2023/03/24 03:10:54;;;;;;;1.97;1.80;;;23.50;56.40;;;;;;5051042;28;20570;-67
2023/03/24 03:13:30;;;;;;;2.27;2.07;;;23.40;56.40;;;;;;5044323;28;20467;-71
2023/03/24 03:16:03;;;;;;;2.60;2.40;;;23.50;56.40;;;;;;5039244;28;20507;-69
2023/03/24 03:18:38;;;;;;;1.97;1.87;;;23.50;56.40;;;;;;5047194;28;20460;-66
2023/03/24 03:21:10;;;;;;;2.27;2.10;;;23.50;56.40;;;;;;5051396;28;20482;-66
2023/03/24 03:23:43;;;;;;;2.33;2.20;;;23.50;56.40;;;;;;5051520;28;20545;-66
2023/03/24 03:26:15;;;;;;;2.43;2.23;;;23.40;56.40;;;;;;5052931;28;20464;-66
2023/03/24 03:28:50;;;;;;;2.03;1.93;;;23.40;56.40;;;;;;5072049;28;20455;-70
2023/03/24 03:31:22;;;;;;;1.70;1.60;;;23.40;56.40;;;;;;5071056;28;20992;-66
2023/03/24 03:33:58;;;;;;;2.40;2.20;;;23.50;56.40;;;;;;5071623;28;20470;-70
2023/03/24 03:36:30;;;;;;;2.13;1.93;;;23.40;56.40;;;;;;5065698;28;20539;-68
2023/03/24 03:39:07;;;;;;;2.30;2.10;;;23.40;56.40;;;;;;5062150;28;20446;-66
2023/03/24 03:41:37;;;;;;;2.30;2.10;;;23.40;56.40;;;;;;5053885;28;20541;-70
2023/03/24 03:44:07;;;;;;;1.93;1.83;;;23.40;56.40;;;;;;5071648;28;20513;-67
2023/03/24 03:46:36;;;;;;;2.03;1.93;;;23.40;56.40;;;;;;5054230;28;20472;-66
2023/03/24 03:49:08;;;;;;;2.07;1.87;;;23.40;56.40;;;;;;5053020;28;20464;-66
2023/03/24 03:51:37;;;;;;;2.17;2.07;;;23.40;56.40;;;;;;5064112;28;20485;-66
2023/03/24 03:54:10;;;;;;;3.47;1.70;;;23.40;56.40;;;;;;5072042;28;20467;-66
2023/03/24 03:56:38;;;;;;;2.13;2.00;;;23.40;56.40;;;;;;5060559;28;20854;-66
2023/03/24 03:59:29;;;;;;;1.93;1.83;;;23.40;56.40;;;;;;5053370;28;20455;-66
2023/03/24 04:02:03;;;;;;;2.17;1.97;;;23.40;56.40;;;;;;5053959;28;20470;-65
2023/03/24 04:05:06;;;;;;;2.30;2.20;;;23.40;56.40;;;;;;5049322;28;21038;-66
2023/03/24 04:07:56;;;;;;;1.80;1.70;;;23.40;56.40;;;;;;5049658;28;20457;-66
2023/03/24 04:11:19;;;;;;;2.57;2.37;;;23.40;56.40;;;;;;5071495;28;20423;-66
2023/03/24 04:14:41;;;;;;;1.83;1.73;;;23.40;56.40;;;;;;5019139;28;20455;-70
2023/03/24 04:17:52;;;;;;;2.23;2.10;;;23.40;56.40;;;;;;4962358;28;20964;-69
2023/03/24 04:20:50;;;;;;;1.60;1.50;;;23.40;56.40;;;;;;5062974;28;20549;-66
2023/03/24 04:23:29;;;;;;;1.77;1.67;;;23.40;56.40;;;;;;5068803;28;20886;-66
2023/03/24 04:26:09;;;;;;;1.73;1.63;;;23.40;56.40;;;;;;5053543;28;20455;-66
2023/03/24 04:28:46;;;;;;;2.10;2.00;;;23.40;56.40;;;;;;5053606;28;20546;-69
2023/03/24 04:31:24;;;;;;;2.20;2.00;;;23.40;56.40;;;;;;5053524;28;20853;-71
2023/03/24 04:34:01;;;;;;;2.30;2.10;;;23.40;56.40;;;;;;5045837;28;20480;-68
2023/03/24 04:36:41;;;;;;;2.70;2.00;;;23.40;56.40;;;;;;5048730;28;20485;-66
2023/03/24 04:39:31;;;;;;;3.00;1.97;;;23.30;56.40;;;;;;5058809;28;21041;-71
2023/03/24 04:42:07;;;;;;;1.77;1.67;;;23.30;56.40;;;;;;5051532;28;20557;-66
2023/03/24 04:44:40;;;;;;;1.90;1.80;;;23.30;56.40;;;;;;5039612;28;20802;-68
2023/03/24 04:47:41;;;;;;;1.77;1.67;;;23.30;56.40;;;;;;5059143;28;20449;-66
2023/03/24 04:50:36;;;;;;;2.00;1.90;;;23.30;56.40;;;;;;5067562;28;20461;-68
2023/03/24 04:53:09;;;;;;;2.40;2.10;;;23.30;56.40;;;;;;5063418;28;20474;-73
2023/03/24 04:56:04;;;;;;;2.00;1.90;;;23.30;56.40;;;;;;5034939;28;21088;-69
2023/03/24 04:58:55;;;;;;;1.70;1.60;;;23.30;56.50;;;;;;5054030;28;20454;-67
2023/03/24 05:01:28;;;;;;;2.00;1.90;;;23.30;56.40;;;;;;5045937;28;20466;-66
2023/03/24 05:04:19;;;;;;;2.07;1.87;;;23.30;56.40;;;;;;5050508;28;20957;-68
2023/03/24 05:06:48;;;;;;;2.00;1.90;;;23.30;56.40;;;;;;5047596;28;20462;-67
2023/03/24 05:09:21;;;;;;;2.40;2.20;;;23.30;56.40;;;;;;5061042;28;20455;-66
2023/03/24 05:11:51;;;;;;;2.13;1.97;;;23.30;56.40;;;;;;5048865;28;21316;-73
2023/03/24 05:14:21;;;;;;;1.77;1.67;;;23.30;56.40;;;;;;5069731;28;20481;-66
2023/03/24 05:16:49;;;;;;;2.10;1.90;;;23.30;56.40;;;;;;5056868;28;20467;-66
2023/03/24 05:19:21;;;;;;;2.50;2.30;;;23.30;56.40;;;;;;5051799;28;20515;-66
2023/03/24 05:21:50;;;;;;;1.90;1.80;;;23.30;56.40;;;;;;5053445;28;20538;-70
2023/03/24 05:24:19;;;;;;;2.10;1.90;;;23.30;56.50;;;;;;5052594;28;20470;-66
2023/03/24 05:26:47;;;;;;;1.90;1.80;;;23.30;56.40;;;;;;5052817;28;20459;-67
2023/03/24 05:29:18;;;;;;;1.90;1.80;;;23.30;56.40;;;;;;5044602;28;20489;-73
2023/03/24 05:31:47;;;;;;;2.30;2.10;;;23.30;56.50;;;;;;5069688;28;20550;-69
2023/03/24 05:34:22;;;;;;;2.37;2.17;;;23.30;56.50;;;;;;5043808;28;21293;-72
2023/03/24 05:37:01;;;;;;;2.90;1.90;;;23.30;56.50;;;;;;5047543;28;20469;-70
2023/03/24 05:39:29;;;;;;;2.17;1.97;;;23.30;56.60;;;;;;5033424;28;20498;-69
2023/03/24 05:42:04;;;;;;;2.07;1.97;;;23.40;56.60;;;;;;5041227;28;20516;-70
2023/03/24 05:44:32;;;;;;;2.33;1.70;;;23.40;56.60;;;;;;5033602;28;21017;-69
2023/03/24 05:47:05;;;;;;;3.73;2.27;;;23.40;56.60;;;;;;5066478;28;20990;-70
2023/03/24 05:49:35;;;;;;;1.73;1.63;;;23.50;56.60;;;;;;5047760;28;20983;-71
2023/03/24 05:52:04;;;;;;;4.23;1.80;;;23.50;56.50;;;;;;5054781;28;20456;-70
2023/03/24 05:54:33;;;;;;;2.80;1.60;;;23.50;56.50;;;;;;5057405;28;20486;-72
2023/03/24 05:57:16;;;;;;;6.13;2.80;;;23.60;56.40;;;;;;5057938;28;20945;-74
2023/03/24 06:00:16;;;;;;;9.87;2.97;;;23.60;56.40;;;;;;5059542;28;21077;-75
2023/03/24 06:02:52;;;;;;;1.90;1.80;;;23.60;56.40;;;;;;5054256;28;20454;-69
2023/03/24 06:05:46;;;;;;;2.93;1.83;;;23.60;56.40;;;;;;5069743;28;20446;-70
2023/03/24 06:08:15;;;;;;;3.80;2.50;;;23.60;56.40;;;;;;5062584;28;20462;-70
2023/03/24 06:10:44;;;;;;;1.70;1.60;;;23.60;56.30;;;;;;5066124;28;20461;-70
2023/03/24 06:13:12;;;;;;;2.10;2.00;;;23.60;56.30;;;;;;5046710;28;20905;-69
2023/03/24 06:15:45;;;;;;;2.40;2.20;;;23.60;56.30;;;;;;5066448;28;20840;-70
2023/03/24 06:18:34;;;;;;;2.37;2.17;;;23.60;56.30;;;;;;5056891;28;21035;-68
2023/03/24 06:21:17;;;;;;;4.37;2.30;;;23.60;56.40;;;;;;5054490;28;20510;-72
2023/03/24 06:23:46;;;;;;;2.63;2.47;;;23.60;56.40;;;;;;5054701;28;20472;-69
2023/03/24 06:26:18;;;;;;;2.83;2.63;;;23.60;56.40;;;;;;5057347;28;20455;-69
2023/03/24 06:28:52;;;;;;;3.30;2.40;;;23.50;56.40;;;;;;5056073;28;20557;-72
2023/03/24 06:31:22;;;;;;;4.33;2.20;;;23.50;56.40;;;;;;5051388;28;20507;-72
2023/03/24 06:33:52;;;;;;;7.97;3.63;;;23.50;56.40;;;;;;5050207;28;20493;-69
2023/03/24 06:36:24;;;;;;;4.57;2.93;;;23.50;56.40;;;;;;5045460;28;20822;-69
2023/03/24 06:38:53;;;;;;;5.60;3.90;;;23.50;56.50;;;;;;5044220;28;20460;-71
2023/03/24 06:41:22;;;;;;;5.03;4.00;;;23.50;56.50;;;;;;5068207;28;20945;-69
2023/03/24 06:43:55;;;;;;;5.23;3.97;;;23.50;56.50;;;;;;5066829;28;20851;-70
2023/03/24 06:46:24;;;;;;;5.63;3.50;;;23.50;56.50;;;;;;5066771;28;20446;-71
2023/03/24 06:48:53;;;;;;;5.30;4.10;;;23.40;56.50;;;;;;5050124;28;20462;-69
2023/03/24 06:51:22;;;;;;;4.07;3.47;;;23.40;56.50;;;;;;5061766;28;20459;-69
2023/03/24 06:53:51;;;;;;;9.10;4.57;;;23.40;56.50;;;;;;5045544;28;20458;-73
2023/03/24 06:56:21;;;;;;;7.40;4.83;;;23.40;56.50;;;;;;5051405;28;20482;-70
2023/03/24 06:58:55;;;;;;;10.80;5.57;;;23.40;56.50;;;;;;5048689;28;20574;-69
2023/03/24 07:01:31;;;;;;;9.20;5.23;;;23.40;56.50;;;;;;5053191;28;20797;-69
2023/03/24 07:04:06;;;;;;;11.40;5.50;;;23.40;56.50;;;;;;5061026;28;20569;-70
2023/03/24 07:06:54;;;;;;;8.33;5.73;;;23.40;56.60;;;;;;5046248;28;20485;-69
2023/03/24 07:09:44;;;;;;;11.77;6.53;;;23.40;56.70;;;;;;5040994;28;20467;-71
2023/03/24 07:12:12;;;;;;;9.40;5.93;;;23.40;56.70;;;;;;5044637;28;20459;-74
2023/03/24 07:14:42;;;;;;;12.00;6.27;;;23.40;56.70;;;;;;5046249;28;20463;-69
2023/03/24 07:17:11;;;;;;;7.60;5.80;;;23.40;56.70;;;;;;5040512;28;20521;-69
2023/03/24 07:20:07;;;;;;;10.50;6.70;;;23.40;56.80;;;;;;5055993;28;20928;-69
2023/03/24 07:22:43;;;;;;;12.13;5.70;;;23.40;57.00;;;;;;5066616;28;20567;-69
2023/03/24 07:25:26;;;;;;;10.80;6.47;;;23.40;57.00;;;;;;5062828;28;20456;-68
2023/03/24 07:28:13;;;;;;;9.57;6.83;;;23.40;57.00;;;;;;5049842;28;20598;-68
2023/03/24 07:30:41;;;;;;;9.27;6.63;;;23.40;57.00;;;;;;5051237;28;20935;-70
2023/03/24 07:33:11;;;;;;;10.83;6.90;;;23.40;57.00;;;;;;5037080;28;20518;-69
2023/03/24 07:35:43;;;;;;;8.60;6.77;;;23.40;57.00;;;;;;5049756;28;20550;-69
2023/03/24 07:38:14;;;;;;;10.10;6.00;;;23.40;57.00;;;;;;5049357;28;20658;-69
2023/03/24 07:40:42;;;;;;;9.67;7.10;;;23.50;57.10;;;;;;5031672;28;20578;-72
2023/03/24 07:43:11;;;;;;;8.87;5.90;;;23.50;57.10;;;;;;5048199;28;20465;-69
2023/03/24 07:45:44;;;;;;;10.97;7.30;;;23.50;57.10;;;;;;5049268;28;20464;-72
2023/03/24 07:48:13;;;;;;;9.40;6.97;;;23.50;57.20;;;;;;5035769;28;20466;-69
2023/03/24 07:50:42;;;;;;;11.80;8.40;;;23.50;57.20;;;;;;5047258;28;20471;-71
2023/03/24 07:53:32;;;;;;;11.57;7.57;;;23.50;57.30;;;;;;5050494;28;21024;-69
2023/03/24 07:56:01;;;;;;;12.00;7.87;;;23.50;57.30;;;;;;5049419;28;20831;-70
2023/03/24 07:58:29;;;;;;;13.23;7.93;;;23.50;57.30;;;;;;5051438;28;20542;-68
2023/03/24 08:01:20;;;;;;;12.83;8.37;;;23.60;57.30;;;;;;5044597;28;20537;-68
2023/03/24 08:03:54;;;;;;;10.70;7.40;;;23.60;57.30;;;;;;5049751;28;20855;-71
2023/03/24 08:06:46;;;;;;;13.10;9.90;;;23.60;57.40;;;;;;5020850;28;20468;-68
2023/03/24 08:09:16;;;;;;;14.30;8.90;;;23.60;57.40;;;;;;5051611;28;20458;-68
2023/03/24 08:11:44;;;;;;;10.53;8.50;;;23.60;57.40;;;;;;5056531;28;20445;-68
2023/03/24 08:14:12;;;;;;;13.83;9.30;;;23.60;57.40;;;;;;5049024;28;20528;-68
2023/03/24 08:16:40;;;;;;;10.70;8.03;;;23.50;57.40;;;;;;5052803;28;20517;-69
2023/03/24 08:19:09;;;;;;;14.37;8.33;;;23.60;57.40;;;;;;5056593;28;20457;-69
2023/03/24 08:21:37;;;;;;;12.30;9.03;;;23.50;57.50;;;;;;5052192;28;20542;-69
2023/03/24 08:24:06;;;;;;;15.10;8.80;;;23.50;57.40;;;;;;5048655;28;21127;-69
2023/03/24 08:26:35;;;;;;;11.70;9.70;;;23.50;57.40;;;;;;5051199;28;20550;-68
2023/03/24 08:29:04;;;;;;;13.73;6.90;;;23.50;57.40;;;;;;5052734;28;21263;-68
2023/03/24 08:31:33;;;;;;;11.80;8.90;;;23.50;57.60;;;;;;5044883;28;20510;-70
2023/03/24 08:34:02;;;;;;;15.47;8.83;;;23.50;57.80;;;;;;5044453;28;20506;-68
2023/03/24 08:36:31;;;;;;;15.60;8.60;;;23.50;58.00;;;;;;5082945;28;20532;-68
2023/03/24 08:39:00;;;;;;;21.70;10.40;;;23.50;58.10;;;;;;5058423;28;20455;-68
2023/03/24 08:41:33;;;;;;;15.33;9.20;;;23.50;58.30;;;;;;5072064;28;20455;-70
2023/03/24 08:44:04;;;;;;;11.67;8.73;;;23.60;58.30;;;;;;5062271;28;20455;-68
2023/03/24 08:46:34;;;;;;;14.30;9.00;;;23.60;58.40;;;;;;5059714;28;20900;-68
2023/03/24 08:49:03;;;;;;;12.10;9.20;;;23.60;58.40;;;;;;5056360;28;20515;-71
2023/03/24 08:51:32;;;;;;;14.97;9.80;;;23.70;58.50;;;;;;5061354;28;20538;-68
2023/03/24 08:54:00;;;;;;;17.00;9.40;;;23.70;58.50;;;;;;5060785;28;20500;-70
2023/03/24 08:56:28;;;;;;;11.73;8.70;;;23.70;58.50;;;;;;5057184;28;20548;-69
2023/03/24 08:58:56;;;;;;;11.87;9.40;;;23.70;58.60;;;;;;5061521;28;21025;-68
2023/03/24 09:01:26;;;;;;;17.87;8.77;;;23.70;58.60;;;;;;5072108;28;20879;-68
2023/03/24 09:03:54;;;;;;;13.80;7.87;;;23.70;58.50;;;;;;5058115;28;20545;-68
2023/03/24 09:06:23;;;;;;;11.37;8.50;;;23.70;58.60;;;;;;5054828;28;20491;-71
2023/03/24 09:08:51;;;;;;;14.93;9.30;;;23.70;58.50;;;;;;5061777;28;21003;-68
2023/03/24 09:11:21;;;;;;;12.70;9.10;;;23.70;58.60;;;;;;5061259;28;20513;-68
2023/03/24 09:13:49;;;;;;;12.57;9.20;;;23.80;58.50;;;;;;5066624;28;20549;-70
2023/03/24 09:16:18;;;;;;;12.27;8.37;;;23.80;58.60;;;;;;5062379;28;21025;-67
2023/03/24 09:18:47;;;;;;;10.53;7.50;;;23.80;58.50;;;;;;5058146;28;20474;-69
2023/03/24 09:21:16;;;;;;;13.07;8.50;;;23.80;58.40;;;;;;5047639;28;20670;-69
2023/03/24 09:23:45;;;;;;;11.87;7.20;;;23.80;58.30;;;;;;5037860;28;20453;-71
2023/03/24 09:26:13;;;;;;;16.27;9.50;;;23.80;58.30;;;;;;5033888;28;20496;-69
2023/03/24 09:28:42;;;;;;;12.87;8.80;;;23.80;58.30;;;;;;5040481;28;20537;-68
2023/03/24 09:31:11;;;;;;;10.70;8.30;;;23.90;58.10;;;;;;5047889;28;20445;-68
2023/03/24 09:33:42;;;;;;;10.73;8.40;;;23.90;58.20;;;;;;5046217;28;20554;-68
2023/03/24 09:36:11;;;;;;;10.57;7.87;;;23.90;58.20;;;;;;5044890;28;20515;-68
2023/03/24 09:38:40;;;;;;;8.43;7.20;;;23.90;58.20;;;;;;5038858;28;20477;-69
2023/03/24 09:41:16;;;;;;;13.70;8.23;;;23.90;58.20;;;;;;5048101;28;20459;-68
2023/03/24 09:43:49;;;;;;;14.23;7.43;;;23.90;58.20;;;;;;5039860;28;20997;-69
2023/03/24 09:46:26;;;;;;;13.10;8.77;;;24.00;58.30;;;;;;5048030;28;20559;-69
2023/03/24 09:48:56;;;;;;;14.43;8.00;;;24.00;58.30;;;;;;5035349;28;20946;-68
2023/03/24 09:51:27;;;;;;;9.30;7.27;;;24.00;58.20;;;;;;5045715;28;20489;-68
2023/03/24 09:54:03;;;;;;;12.53;7.60;;;24.00;58.10;;;;;;5045744;28;20517;-70
2023/03/24 09:56:33;;;;;;;12.50;8.47;;;24.00;58.10;;;;;;5042517;28;20446;-69
2023/03/24 09:59:05;;;;;;;9.90;6.97;;;24.00;58.00;;;;;;5039464;28;20467;-70
2023/03/24 10:01:35;;;;;;;10.27;7.77;;;24.00;58.10;;;;;;5042586;28;20456;-68
2023/03/24 10:04:05;;;;;;;11.07;6.60;;;24.00;58.10;;;;;;5035491;28;20477;-68
2023/03/24 10:06:40;;;;;;;12.33;7.70;;;24.00;58.10;;;;;;5045656;28;20811;-68
2023/03/24 10:09:26;;;;;;;9.20;6.93;;;24.00;58.00;;;;;;5038554;28;20537;-68
2023/03/24 10:12:11;;;;;;;11.07;7.03;;;24.00;58.00;;;;;;5033519;28;20847;-68
2023/03/24 10:14:52;;;;;;;9.63;6.47;;;24.00;57.90;;;;;;5035847;28;20836;-69
2023/03/24 10:17:27;;;;;;;12.07;7.03;;;24.00;58.00;;;;;;5032795;28;20464;-68
2023/03/24 10:20:01;;;;;;;10.53;6.30;;;24.00;57.90;;;;;;5045787;28;20480;-67
2023/03/24 10:22:36;;;;;;;8.63;5.77;;;24.00;58.00;;;;;;5060306;28;20448;-69
2023/03/24 10:25:15;;;;;;;9.10;7.53;;;24.00;58.10;;;;;;5058742;28;20463;-67
2023/03/24 10:27:47;;;;;;;10.13;6.20;;;24.10;58.10;;;;;;5060486;28;20566;-71
2023/03/24 10:30:19;;;;;;;9.60;6.70;;;24.10;58.00;;;;;;5044226;28;20888;-75
2023/03/24 10:32:47;;;;;;;14.00;6.97;;;24.10;57.80;;;;;;5063770;28;20927;-72
2023/03/24 10:35:19;;;;;;;10.90;6.13;;;24.10;57.70;;;;;;5053382;28;20463;-69
2023/03/24 10:37:49;;;;;;;10.90;5.93;;;24.10;57.60;;;;;;5063529;28;20475;-69
2023/03/24 10:40:26;;;;;;;8.33;6.13;;;24.10;57.60;;;;;;5058060;28;20454;-69
2023/03/24 10:43:02;;;;;;;6.70;5.40;;;24.10;57.60;;;;;;5056735;28;20461;-69
2023/03/24 10:45:38;;;;;;;6.80;6.10;;;24.10;57.60;;;;;;5068291;28;20454;-68
2023/03/24 10:48:08;;;;;;;11.33;6.57;;;24.10;57.70;;;;;;5055885;28;20436;-68
2023/03/24 10:50:42;;;;;;;8.40;6.57;;;24.10;57.60;;;;;;5056191;28;20463;-68
2023/03/24 10:53:18;;;;;;;11.23;6.43;;;24.10;57.60;;;;;;5053970;28;20468;-68
2023/03/24 10:55:47;;;;;;;7.20;5.80;;;24.10;57.50;;;;;;5072629;28;21053;-68
2023/03/24 10:58:28;;;;;;;7.00;5.10;;;24.10;57.30;;;;;;5073627;28;20973;-68
2023/03/24 11:00:59;;;;;;;6.73;5.30;;;24.10;57.30;;;;;;5072963;28;20459;-68
2023/03/24 11:03:29;;;;;;;11.13;6.47;;;24.10;57.30;;;;;;5067056;28;20447;-68
2023/03/24 11:06:00;;;;;;;9.27;5.80;;;24.10;57.30;;;;;;5069958;28;20458;-68
2023/03/24 11:08:35;;;;;;;7.00;5.40;;;24.10;57.30;;;;;;5069993;28;20543;-68
2023/03/24 11:11:15;;;;;;;7.60;5.00;;;24.10;57.20;;;;;;5072365;28;20466;-68
2023/03/24 11:13:54;;;;;;;6.10;5.50;;;24.10;57.30;;;;;;5073837;28;20458;-68
2023/03/24 11:16:27;;;;;;;6.60;5.27;;;24.10;57.50;;;;;;5057659;28;20596;-68
2023/03/24 11:18:57;;;;;;;7.30;5.57;;;24.00;57.40;;;;;;5052614;28;20477;-68
2023/03/24 11:21:27;;;;;;;5.47;4.80;;;24.00;57.20;;;;;;5062386;28;20489;-68
2023/03/24 11:23:59;;;;;;;6.43;5.80;;;24.00;57.40;;;;;;5065506;28;20935;-68
2023/03/24 11:26:31;;;;;;;6.63;5.00;;;24.00;57.30;;;;;;5073414;28;20418;-68
2023/03/24 11:29:03;;;;;;;6.30;5.63;;;24.00;57.50;;;;;;5060911;28;20559;-68
2023/03/24 11:31:37;;;;;;;7.63;5.47;;;23.90;57.50;;;;;;5062500;28;20534;-69
2023/03/24 11:34:11;;;;;;;6.73;5.50;;;23.90;57.60;;;;;;5047795;28;20516;-68
2023/03/24 11:36:46;;;;;;;6.97;5.07;;;23.90;57.60;;;;;;5063555;28;20448;-68
2023/03/24 11:39:20;;;;;;;6.10;4.70;;;23.90;57.60;;;;;;5068038;28;20462;-69
2023/03/24 11:42:15;;;;;;;9.83;5.00;;;23.90;57.60;;;;;;5062979;28;20458;-68
2023/03/24 11:44:46;;;;;;;4.90;4.23;;;23.90;57.50;;;;;;5065018;28;20521;-69
2023/03/24 11:47:22;;;;;;;6.40;4.57;;;23.90;57.50;;;;;;5062009;28;20452;-68
2023/03/24 11:49:58;;;;;;;5.77;5.03;;;23.90;57.40;;;;;;5068502;28;20458;-69
2023/03/24 11:52:30;;;;;;;5.73;4.70;;;23.90;57.50;;;;;;5067189;28;20543;-69
2023/03/24 11:55:00;;;;;;;6.10;5.10;;;23.90;57.50;;;;;;5067450;28;20456;-69
2023/03/24 11:57:44;;;;;;;6.50;5.03;;;24.00;57.40;;;;;;5068030;28;20837;-69
2023/03/24 12:00:20;;;;;;;9.83;6.27;;;24.00;57.30;;;;;;5049425;28;20480;-68
2023/03/24 12:03:15;;;;;;;7.00;5.50;;;24.00;57.40;;;;;;5067374;28;20484;-68
2023/03/24 12:05:50;;;;;;;7.73;6.30;;;24.00;57.50;;;;;;5056065;28;21018;-69
2023/03/24 12:08:37;;;;;;;7.60;5.57;;;24.00;57.40;;;;;;5058050;28;20478;-68
2023/03/24 12:11:13;;;;;;;7.70;6.00;;;23.90;57.70;;;;;;5059389;28;20481;-69
2023/03/24 12:13:48;;;;;;;7.33;5.43;;;23.90;57.40;;;;;;5064437;28;20518;-69
2023/03/24 12:16:28;;;;;;;10.07;6.20;;;23.90;57.40;;;;;;5053091;28;20533;-69
2023/03/24 12:19:24;;;;;;;9.30;6.23;;;23.90;57.50;;;;;;5059422;28;20529;-69
2023/03/24 12:22:02;;;;;;;8.20;6.27;;;23.90;57.40;;;;;;5028358;28;20960;-70
2023/03/24 12:24:46;;;;;;;8.13;5.70;;;23.90;57.40;;;;;;5047020;28;20874;-69
2023/03/24 12:27:26;;;;;;;7.80;5.07;;;23.80;57.50;;;;;;5066337;28;20454;-68
2023/03/24 12:30:01;;;;;;;7.27;6.43;;;23.80;57.60;;;;;;5065210;28;21013;-68
2023/03/24 12:32:46;;;;;;;9.40;5.50;;;23.80;57.40;;;;;;5071088;28;20454;-70
2023/03/24 12:35:56;;;;;;;9.03;5.23;;;23.90;57.30;;;;;;5068164;28;20464;-68
2023/03/24 12:38:44;;;;;;;8.23;5.60;;;23.90;57.40;;;;;;5001645;28;20472;-68
2023/03/24 12:41:31;;;;;;;7.73;5.23;;;23.90;57.30;;;;;;4999464;28;20498;-68
2023/03/24 12:44:29;;;;;;;8.47;5.57;;;23.90;57.40;;;;;;5047615;28;20518;-68
2023/03/24 12:47:08;;;;;;;8.30;5.50;;;23.90;57.30;;;;;;5055062;28;20452;-68
2023/03/24 12:49:47;;;;;;;7.83;4.97;;;23.90;57.30;;;;;;5066093;28;20511;-69
2023/03/24 12:52:37;;;;;;;8.33;5.00;;;23.80;57.30;;;;;;5062287;28;20959;-68
2023/03/24 12:55:11;;;;;;;8.67;5.53;;;23.80;57.50;;;;;;5058209;28;20597;-67
2023/03/24 12:57:44;;;;;;;6.47;4.47;;;23.80;57.60;;;;;;5064380;28;20541;-68
2023/03/24 13:00:21;;;;;;;9.13;5.40;;;23.80;57.70;;;;;;5061048;28;20905;-71
2023/03/24 13:02:53;;;;;;;6.37;4.00;;;23.80;58.00;;;;;;5066945;28;20460;-69
2023/03/24 13:05:26;;;;;;;5.70;5.13;;;23.80;57.80;;;;;;5059839;28;20555;-66
2023/03/24 13:08:01;;;;;;;6.87;4.53;;;23.80;58.00;;;;;;5061661;28;20549;-66
2023/03/24 13:10:31;;;;;;;8.00;5.33;;;23.80;58.10;;;;;;5050050;28;20940;-66
2023/03/24 13:13:02;;;;;;;6.67;4.63;;;23.90;58.10;;;;;;5062968;28;21024;-67
2023/03/24 13:15:38;;;;;;;4.87;3.80;;;23.90;58.20;;;;;;5055429;28;20454;-68
2023/03/24 13:18:18;;;;;;;5.27;4.33;;;23.90;58.10;;;;;;5065283;28;20548;-66
2023/03/24 13:20:51;;;;;;;5.37;4.63;;;23.90;58.10;;;;;;5055022;28;20499;-66
2023/03/24 13:23:36;;;;;;;6.07;4.47;;;24.00;58.10;;;;;;5043484;28;20610;-67
2023/03/24 13:26:19;;;;;;;6.43;4.30;;;24.00;58.10;;;;;;5056342;28;20563;-66
2023/03/24 13:28:57;;;;;;;5.67;3.70;;;24.00;58.00;;;;;;5063723;28;20538;-65